sensor_id;sensor_type;location;lat;lon;timestamp;P1;durP1;ratioP1;P2;durP2;ratioP2
7440;SDS011;29616;51.950;8.572;2023-04-24T00:01:42;1.00;;;0.75;;
7440;SDS011;29616;51.950;8.572;2023-04-24T00:04:13;0.85;;;0.25;;
7440;SDS011;29616;51.950;8.572;2023-04-24T00:06:45;1.30;;;1.20;;
7440;SDS011;29616;51.950;8.572;2023-04-24T00:09:15;0.98;;;0.80;;
7440;SDS011;29616;51.950;8.572;2023-04-24T00:11:45;1.92;;;1.52;;
7440;SDS011;29616;51.950;8.572;2023-04-24T00:14:16;1.63;;;0.30;;
7440;SDS011;29616;51.950;8.572;2023-04-24T00:16:45;1.40;;;1.23;;
7440;SDS011;29616;51.950;8.572;2023-04-24T00:19:16;1.40;;;0.57;;
7440;SDS011;29616;51.950;8.572;2023-04-24T00:21:50;2.63;;;2.42;;
7440;SDS011;29616;51.950;8.572;2023-04-24T00:24:19;1.45;;;0.55;;
7440;SDS011;29616;51.950;8.572;2023-04-24T00:26:48;1.55;;;0.98;;
7440;SDS011;29616;51.950;8.572;2023-04-24T00:29:18;2.40;;;1.75;;
7440;SDS011;29616;51.950;8.572;2023-04-24T00:31:46;2.55;;;2.35;;
7440;SDS011;29616;51.950;8.572;2023-04-24T00:34:15;2.53;;;2.17;;
7440;SDS011;29616;51.950;8.572;2023-04-24T00:36:45;2.30;;;1.83;;
7440;SDS011;29616;51.950;8.572;2023-04-24T00:39:18;1.73;;;0.75;;
7440;SDS011;29616;51.950;8.572;2023-04-24T00:41:47;2.30;;;0.68;;
7440;SDS011;29616;51.950;8.572;2023-04-24T00:44:19;1.25;;;0.47;;
7440;SDS011;29616;51.950;8.572;2023-04-24T00:46:48;1.30;;;0.55;;
7440;SDS011;29616;51.950;8.572;2023-04-24T00:49:23;1.65;;;0.57;;
7440;SDS011;29616;51.950;8.572;2023-04-24T00:51:53;2.47;;;2.15;;
7440;SDS011;29616;51.950;8.572;2023-04-24T00:54:24;2.20;;;0.60;;
7440;SDS011;29616;51.950;8.572;2023-04-24T00:56:53;1.55;;;0.50;;
7440;SDS011;29616;51.950;8.572;2023-04-24T00:59:22;3.88;;;3.58;;
7440;SDS011;29616;51.950;8.572;2023-04-24T01:01:52;2.58;;;0.82;;
7440;SDS011;29616;51.950;8.572;2023-04-24T01:04:22;1.75;;;0.63;;
7440;SDS011;29616;51.950;8.572;2023-04-24T01:06:50;4.43;;;1.05;;
7440;SDS011;29616;51.950;8.572;2023-04-24T01:09:22;2.33;;;1.80;;
7440;SDS011;29616;51.950;8.572;2023-04-24T01:11:52;2.05;;;0.85;;
7440;SDS011;29616;51.950;8.572;2023-04-24T01:14:23;2.25;;;2.05;;
7440;SDS011;29616;51.950;8.572;2023-04-24T01:16:53;1.33;;;0.45;;
7440;SDS011;29616;51.950;8.572;2023-04-24T01:19:21;2.63;;;2.00;;
7440;SDS011;29616;51.950;8.572;2023-04-24T01:21:50;1.75;;;0.55;;
7440;SDS011;29616;51.950;8.572;2023-04-24T01:24:23;1.23;;;0.35;;
7440;SDS011;29616;51.950;8.572;2023-04-24T01:26:52;3.13;;;1.75;;
7440;SDS011;29616;51.950;8.572;2023-04-24T01:29:21;1.67;;;0.55;;
7440;SDS011;29616;51.950;8.572;2023-04-24T01:31:50;1.55;;;1.33;;
7440;SDS011;29616;51.950;8.572;2023-04-24T01:34:20;4.38;;;4.07;;
7440;SDS011;29616;51.950;8.572;2023-04-24T01:36:49;2.22;;;0.30;;
7440;SDS011;29616;51.950;8.572;2023-04-24T01:39:18;1.80;;;0.32;;
7440;SDS011;29616;51.950;8.572;2023-04-24T01:41:50;1.10;;;0.38;;
7440;SDS011;29616;51.950;8.572;2023-04-24T01:44:22;1.70;;;1.38;;
7440;SDS011;29616;51.950;8.572;2023-04-24T01:46:51;1.90;;;1.70;;
7440;SDS011;29616;51.950;8.572;2023-04-24T01:49:20;2.35;;;2.15;;
7440;SDS011;29616;51.950;8.572;2023-04-24T01:51:50;1.30;;;0.52;;
7440;SDS011;29616;51.950;8.572;2023-04-24T01:54:18;1.73;;;0.35;;
7440;SDS011;29616;51.950;8.572;2023-04-24T01:56:47;1.45;;;1.05;;
7440;SDS011;29616;51.950;8.572;2023-04-24T01:59:18;0.88;;;0.28;;
7440;SDS011;29616;51.950;8.572;2023-04-24T02:01:50;0.75;;;0.20;;
7440;SDS011;29616;51.950;8.572;2023-04-24T02:04:19;2.97;;;1.42;;
7440;SDS011;29616;51.950;8.572;2023-04-24T02:06:49;1.50;;;0.60;;
7440;SDS011;29616;51.950;8.572;2023-04-24T02:09:20;1.10;;;0.52;;
7440;SDS011;29616;51.950;8.572;2023-04-24T02:11:49;1.58;;;1.17;;
7440;SDS011;29616;51.950;8.572;2023-04-24T02:14:21;2.35;;;1.52;;
7440;SDS011;29616;51.950;8.572;2023-04-24T02:16:51;4.13;;;1.30;;
7440;SDS011;29616;51.950;8.572;2023-04-24T02:19:19;1.35;;;0.47;;
7440;SDS011;29616;51.950;8.572;2023-04-24T02:21:49;1.95;;;1.42;;
7440;SDS011;29616;51.950;8.572;2023-04-24T02:24:19;2.00;;;1.73;;
7440;SDS011;29616;51.950;8.572;2023-04-24T02:26:47;2.35;;;2.15;;
7440;SDS011;29616;51.950;8.572;2023-04-24T02:29:15;0.77;;;0.25;;
7440;SDS011;29616;51.950;8.572;2023-04-24T02:31:45;2.15;;;1.63;;
7440;SDS011;29616;51.950;8.572;2023-04-24T02:34:14;1.60;;;0.47;;
7440;SDS011;29616;51.950;8.572;2023-04-24T02:39:13;1.73;;;1.63;;
7440;SDS011;29616;51.950;8.572;2023-04-24T02:41:44;1.30;;;0.43;;
7440;SDS011;29616;51.950;8.572;2023-04-24T02:44:15;2.10;;;1.52;;
7440;SDS011;29616;51.950;8.572;2023-04-24T02:46:46;1.40;;;0.70;;
7440;SDS011;29616;51.950;8.572;2023-04-24T02:49:15;2.00;;;1.55;;
7440;SDS011;29616;51.950;8.572;2023-04-24T02:51:44;2.45;;;2.25;;
7440;SDS011;29616;51.950;8.572;2023-04-24T02:54:14;1.35;;;0.68;;
7440;SDS011;29616;51.950;8.572;2023-04-24T02:56:42;2.53;;;2.20;;
7440;SDS011;29616;51.950;8.572;2023-04-24T02:59:12;1.42;;;0.40;;
7440;SDS011;29616;51.950;8.572;2023-04-24T03:01:40;2.95;;;1.55;;
7440;SDS011;29616;51.950;8.572;2023-04-24T03:04:11;2.60;;;0.50;;
7440;SDS011;29616;51.950;8.572;2023-04-24T03:06:41;1.92;;;0.52;;
7440;SDS011;29616;51.950;8.572;2023-04-24T03:09:10;2.63;;;1.38;;
7440;SDS011;29616;51.950;8.572;2023-04-24T03:11:39;2.33;;;1.77;;
7440;SDS011;29616;51.950;8.572;2023-04-24T03:14:10;2.60;;;0.55;;
7440;SDS011;29616;51.950;8.572;2023-04-24T03:16:39;1.65;;;1.17;;
7440;SDS011;29616;51.950;8.572;2023-04-24T03:19:09;3.45;;;1.40;;
7440;SDS011;29616;51.950;8.572;2023-04-24T03:21:48;2.17;;;1.73;;
7440;SDS011;29616;51.950;8.572;2023-04-24T03:24:18;2.15;;;0.32;;
7440;SDS011;29616;51.950;8.572;2023-04-24T03:29:37;1.90;;;1.35;;
7440;SDS011;29616;51.950;8.572;2023-04-24T03:32:07;1.30;;;0.30;;
7440;SDS011;29616;51.950;8.572;2023-04-24T03:34:38;1.73;;;0.32;;
7440;SDS011;29616;51.950;8.572;2023-04-24T03:37:10;1.80;;;1.63;;
7440;SDS011;29616;51.950;8.572;2023-04-24T03:39:45;1.45;;;0.93;;
7440;SDS011;29616;51.950;8.572;2023-04-24T03:42:16;4.22;;;2.40;;
7440;SDS011;29616;51.950;8.572;2023-04-24T03:44:53;2.92;;;0.90;;
7440;SDS011;29616;51.950;8.572;2023-04-24T03:47:27;1.55;;;0.50;;
7440;SDS011;29616;51.950;8.572;2023-04-24T03:50:00;2.13;;;1.92;;
7440;SDS011;29616;51.950;8.572;2023-04-24T03:52:32;1.45;;;0.38;;
7440;SDS011;29616;51.950;8.572;2023-04-24T03:55:02;2.15;;;1.98;;
7440;SDS011;29616;51.950;8.572;2023-04-24T03:57:37;1.80;;;0.20;;
7440;SDS011;29616;51.950;8.572;2023-04-24T04:00:13;2.08;;;1.42;;
7440;SDS011;29616;51.950;8.572;2023-04-24T04:02:48;2.30;;;0.57;;
7440;SDS011;29616;51.950;8.572;2023-04-24T04:05:19;2.08;;;1.90;;
7440;SDS011;29616;51.950;8.572;2023-04-24T04:07:49;1.42;;;0.65;;
7440;SDS011;29616;51.950;8.572;2023-04-24T04:10:19;2.10;;;1.80;;
7440;SDS011;29616;51.950;8.572;2023-04-24T04:12:48;1.88;;;0.82;;
7440;SDS011;29616;51.950;8.572;2023-04-24T04:15:18;3.47;;;0.50;;
7440;SDS011;29616;51.950;8.572;2023-04-24T04:17:48;1.63;;;0.63;;
7440;SDS011;29616;51.950;8.572;2023-04-24T04:20:17;1.45;;;0.32;;
7440;SDS011;29616;51.950;8.572;2023-04-24T04:22:47;1.45;;;0.40;;
7440;SDS011;29616;51.950;8.572;2023-04-24T04:25:26;3.55;;;2.30;;
7440;SDS011;29616;51.950;8.572;2023-04-24T04:27:56;3.05;;;2.85;;
7440;SDS011;29616;51.950;8.572;2023-04-24T04:30:27;2.00;;;1.05;;
7440;SDS011;29616;51.950;8.572;2023-04-24T04:33:01;1.98;;;0.57;;
7440;SDS011;29616;51.950;8.572;2023-04-24T04:35:33;3.17;;;2.88;;
7440;SDS011;29616;51.950;8.572;2023-04-24T04:38:05;3.67;;;1.05;;
7440;SDS011;29616;51.950;8.572;2023-04-24T04:41:02;3.10;;;2.72;;
7440;SDS011;29616;51.950;8.572;2023-04-24T04:43:32;4.10;;;1.85;;
7440;SDS011;29616;51.950;8.572;2023-04-24T04:46:03;3.63;;;1.48;;
7440;SDS011;29616;51.950;8.572;2023-04-24T04:48:44;2.65;;;2.28;;
7440;SDS011;29616;51.950;8.572;2023-04-24T04:51:14;2.28;;;1.23;;
7440;SDS011;29616;51.950;8.572;2023-04-24T04:53:45;2.30;;;1.08;;
7440;SDS011;29616;51.950;8.572;2023-04-24T04:56:16;5.53;;;2.75;;
7440;SDS011;29616;51.950;8.572;2023-04-24T04:58:46;4.10;;;3.08;;
7440;SDS011;29616;51.950;8.572;2023-04-24T05:01:16;3.80;;;2.42;;
7440;SDS011;29616;51.950;8.572;2023-04-24T05:03:47;4.38;;;3.15;;
7440;SDS011;29616;51.950;8.572;2023-04-24T05:06:18;5.82;;;2.55;;
7440;SDS011;29616;51.950;8.572;2023-04-24T05:08:53;6.97;;;5.10;;
7440;SDS011;29616;51.950;8.572;2023-04-24T05:11:32;7.22;;;3.40;;
7440;SDS011;29616;51.950;8.572;2023-04-24T05:14:02;6.10;;;4.00;;
7440;SDS011;29616;51.950;8.572;2023-04-24T05:16:34;6.95;;;4.40;;
7440;SDS011;29616;51.950;8.572;2023-04-24T05:19:06;7.50;;;3.78;;
7440;SDS011;29616;51.950;8.572;2023-04-24T05:21:39;7.70;;;6.55;;
7440;SDS011;29616;51.950;8.572;2023-04-24T05:24:11;5.25;;;3.83;;
7440;SDS011;29616;51.950;8.572;2023-04-24T05:27:02;7.05;;;3.95;;
7440;SDS011;29616;51.950;8.572;2023-04-24T05:29:38;8.70;;;7.80;;
7440;SDS011;29616;51.950;8.572;2023-04-24T05:32:10;8.40;;;2.92;;
7440;SDS011;29616;51.950;8.572;2023-04-24T05:34:40;11.30;;;7.32;;
7440;SDS011;29616;51.950;8.572;2023-04-24T05:37:09;7.70;;;4.20;;
7440;SDS011;29616;51.950;8.572;2023-04-24T05:39:41;9.70;;;4.75;;
7440;SDS011;29616;51.950;8.572;2023-04-24T05:42:10;9.27;;;4.63;;
7440;SDS011;29616;51.950;8.572;2023-04-24T05:44:38;7.10;;;5.93;;
7440;SDS011;29616;51.950;8.572;2023-04-24T05:47:07;7.97;;;4.10;;
7440;SDS011;29616;51.950;8.572;2023-04-24T05:49:37;13.00;;;5.97;;
7440;SDS011;29616;51.950;8.572;2023-04-24T05:52:07;6.53;;;3.20;;
7440;SDS011;29616;51.950;8.572;2023-04-24T05:54:37;9.40;;;7.78;;
7440;SDS011;29616;51.950;8.572;2023-04-24T05:57:10;10.68;;;6.90;;
7440;SDS011;29616;51.950;8.572;2023-04-24T05:59:50;9.75;;;4.70;;
7440;SDS011;29616;51.950;8.572;2023-04-24T06:02:21;8.45;;;5.63;;
7440;SDS011;29616;51.950;8.572;2023-04-24T06:04:51;16.58;;;9.27;;
7440;SDS011;29616;51.950;8.572;2023-04-24T06:07:22;8.70;;;5.95;;
7440;SDS011;29616;51.950;8.572;2023-04-24T06:09:53;11.88;;;3.95;;
7440;SDS011;29616;51.950;8.572;2023-04-24T06:12:25;9.75;;;5.35;;
7440;SDS011;29616;51.950;8.572;2023-04-24T06:14:59;10.13;;;6.95;;
7440;SDS011;29616;51.950;8.572;2023-04-24T06:17:47;10.40;;;6.47;;
7440;SDS011;29616;51.950;8.572;2023-04-24T06:20:19;12.68;;;7.32;;
7440;SDS011;29616;51.950;8.572;2023-04-24T06:22:49;9.90;;;6.78;;
7440;SDS011;29616;51.950;8.572;2023-04-24T06:25:20;13.00;;;7.18;;
7440;SDS011;29616;51.950;8.572;2023-04-24T06:27:51;7.10;;;5.60;;
7440;SDS011;29616;51.950;8.572;2023-04-24T06:30:22;10.57;;;6.18;;
7440;SDS011;29616;51.950;8.572;2023-04-24T06:32:51;14.57;;;9.10;;
7440;SDS011;29616;51.950;8.572;2023-04-24T06:35:25;12.60;;;9.45;;
7440;SDS011;29616;51.950;8.572;2023-04-24T06:37:53;10.65;;;6.00;;
7440;SDS011;29616;51.950;8.572;2023-04-24T06:40:23;10.52;;;5.18;;
7440;SDS011;29616;51.950;8.572;2023-04-24T06:42:54;10.77;;;7.05;;
7440;SDS011;29616;51.950;8.572;2023-04-24T06:45:26;10.38;;;6.45;;
7440;SDS011;29616;51.950;8.572;2023-04-24T06:47:55;11.05;;;5.95;;
7440;SDS011;29616;51.950;8.572;2023-04-24T06:50:26;10.05;;;5.28;;
7440;SDS011;29616;51.950;8.572;2023-04-24T06:52:56;11.48;;;6.78;;
7440;SDS011;29616;51.950;8.572;2023-04-24T06:55:26;8.13;;;3.45;;
7440;SDS011;29616;51.950;8.572;2023-04-24T06:57:56;9.15;;;6.60;;
7440;SDS011;29616;51.950;8.572;2023-04-24T07:00:25;9.10;;;6.53;;
7440;SDS011;29616;51.950;8.572;2023-04-24T07:02:53;12.90;;;6.63;;
7440;SDS011;29616;51.950;8.572;2023-04-24T07:05:24;13.93;;;6.88;;
7440;SDS011;29616;51.950;8.572;2023-04-24T07:07:53;8.40;;;3.97;;
7440;SDS011;29616;51.950;8.572;2023-04-24T07:10:24;10.80;;;3.63;;
7440;SDS011;29616;51.950;8.572;2023-04-24T07:12:57;5.72;;;4.78;;
7440;SDS011;29616;51.950;8.572;2023-04-24T07:15:30;9.90;;;5.32;;
7440;SDS011;29616;51.950;8.572;2023-04-24T07:18:00;9.85;;;6.20;;
7440;SDS011;29616;51.950;8.572;2023-04-24T07:20:31;7.40;;;5.05;;
7440;SDS011;29616;51.950;8.572;2023-04-24T07:23:02;7.22;;;3.58;;
7440;SDS011;29616;51.950;8.572;2023-04-24T07:25:31;8.20;;;3.42;;
7440;SDS011;29616;51.950;8.572;2023-04-24T07:28:01;6.95;;;5.35;;
7440;SDS011;29616;51.950;8.572;2023-04-24T07:30:32;7.47;;;4.60;;
7440;SDS011;29616;51.950;8.572;2023-04-24T07:33:01;8.75;;;5.95;;
7440;SDS011;29616;51.950;8.572;2023-04-24T07:35:30;7.38;;;3.17;;
7440;SDS011;29616;51.950;8.572;2023-04-24T07:37:59;5.55;;;3.33;;
7440;SDS011;29616;51.950;8.572;2023-04-24T07:40:28;5.22;;;2.67;;
7440;SDS011;29616;51.950;8.572;2023-04-24T07:42:57;8.98;;;4.70;;
7440;SDS011;29616;51.950;8.572;2023-04-24T07:45:29;7.68;;;3.75;;
7440;SDS011;29616;51.950;8.572;2023-04-24T07:47:57;8.95;;;5.68;;
7440;SDS011;29616;51.950;8.572;2023-04-24T07:50:28;6.85;;;4.93;;
7440;SDS011;29616;51.950;8.572;2023-04-24T07:52:58;7.60;;;5.70;;
7440;SDS011;29616;51.950;8.572;2023-04-24T07:55:29;7.25;;;3.15;;
7440;SDS011;29616;51.950;8.572;2023-04-24T07:57:57;5.82;;;4.25;;
7440;SDS011;29616;51.950;8.572;2023-04-24T08:00:28;6.13;;;3.85;;
7440;SDS011;29616;51.950;8.572;2023-04-24T08:02:58;7.10;;;4.13;;
7440;SDS011;29616;51.950;8.572;2023-04-24T08:05:29;5.97;;;4.80;;
7440;SDS011;29616;51.950;8.572;2023-04-24T08:07:58;5.78;;;4.15;;
7440;SDS011;29616;51.950;8.572;2023-04-24T08:10:28;3.70;;;2.42;;
7440;SDS011;29616;51.950;8.572;2023-04-24T08:12:56;5.45;;;4.28;;
7440;SDS011;29616;51.950;8.572;2023-04-24T08:15:27;6.10;;;5.50;;
7440;SDS011;29616;51.950;8.572;2023-04-24T08:17:58;4.90;;;4.07;;
7440;SDS011;29616;51.950;8.572;2023-04-24T08:20:27;5.05;;;3.08;;
7440;SDS011;29616;51.950;8.572;2023-04-24T08:22:56;4.82;;;3.58;;
7440;SDS011;29616;51.950;8.572;2023-04-24T08:25:26;4.10;;;3.28;;
7440;SDS011;29616;51.950;8.572;2023-04-24T08:27:56;3.63;;;2.85;;
7440;SDS011;29616;51.950;8.572;2023-04-24T08:30:26;2.75;;;1.48;;
7440;SDS011;29616;51.950;8.572;2023-04-24T08:32:59;3.50;;;1.15;;
7440;SDS011;29616;51.950;8.572;2023-04-24T08:35:28;5.00;;;1.00;;
7440;SDS011;29616;51.950;8.572;2023-04-24T08:37:58;3.53;;;1.52;;
7440;SDS011;29616;51.950;8.572;2023-04-24T08:40:28;3.67;;;3.40;;
7440;SDS011;29616;51.950;8.572;2023-04-24T08:42:57;4.10;;;3.08;;
7440;SDS011;29616;51.950;8.572;2023-04-24T08:45:26;3.17;;;2.30;;
7440;SDS011;29616;51.950;8.572;2023-04-24T08:47:57;4.40;;;2.10;;
7440;SDS011;29616;51.950;8.572;2023-04-24T08:50:29;4.32;;;1.08;;
7440;SDS011;29616;51.950;8.572;2023-04-24T08:52:59;4.07;;;3.17;;
7440;SDS011;29616;51.950;8.572;2023-04-24T08:55:32;2.60;;;1.02;;
7440;SDS011;29616;51.950;8.572;2023-04-24T08:58:05;4.22;;;3.30;;
7440;SDS011;29616;51.950;8.572;2023-04-24T09:00:35;4.97;;;3.67;;
7440;SDS011;29616;51.950;8.572;2023-04-24T09:03:08;5.25;;;3.92;;
7440;SDS011;29616;51.950;8.572;2023-04-24T09:05:40;3.30;;;2.25;;
7440;SDS011;29616;51.950;8.572;2023-04-24T09:08:13;3.70;;;3.28;;
7440;SDS011;29616;51.950;8.572;2023-04-24T09:10:43;3.80;;;1.52;;
7440;SDS011;29616;51.950;8.572;2023-04-24T09:13:15;2.65;;;0.85;;
7440;SDS011;29616;51.950;8.572;2023-04-24T09:15:46;4.18;;;2.95;;
7440;SDS011;29616;51.950;8.572;2023-04-24T09:18:14;2.28;;;0.85;;
7440;SDS011;29616;51.950;8.572;2023-04-24T09:21:00;3.92;;;3.15;;
7440;SDS011;29616;51.950;8.572;2023-04-24T09:23:31;3.60;;;2.63;;
7440;SDS011;29616;51.950;8.572;2023-04-24T09:26:03;2.65;;;1.08;;
7440;SDS011;29616;51.950;8.572;2023-04-24T09:28:32;2.08;;;1.30;;
7440;SDS011;29616;51.950;8.572;2023-04-24T09:31:07;3.92;;;1.17;;
7440;SDS011;29616;51.950;8.572;2023-04-24T09:33:38;2.90;;;2.03;;
7440;SDS011;29616;51.950;8.572;2023-04-24T09:36:07;2.50;;;1.20;;
7440;SDS011;29616;51.950;8.572;2023-04-24T09:38:37;2.60;;;2.20;;
7440;SDS011;29616;51.950;8.572;2023-04-24T09:41:07;3.15;;;2.35;;
7440;SDS011;29616;51.950;8.572;2023-04-24T09:43:42;3.25;;;0.68;;
7440;SDS011;29616;51.950;8.572;2023-04-24T09:46:15;1.70;;;1.05;;
7440;SDS011;29616;51.950;8.572;2023-04-24T09:48:49;1.48;;;0.55;;
7440;SDS011;29616;51.950;8.572;2023-04-24T09:51:20;3.08;;;2.78;;
7440;SDS011;29616;51.950;8.572;2023-04-24T09:54:03;1.35;;;0.45;;
7440;SDS011;29616;51.950;8.572;2023-04-24T09:56:41;1.25;;;0.50;;
7440;SDS011;29616;51.950;8.572;2023-04-24T09:59:12;1.20;;;0.47;;
7440;SDS011;29616;51.950;8.572;2023-04-24T10:01:46;3.42;;;1.98;;
7440;SDS011;29616;51.950;8.572;2023-04-24T10:04:18;2.17;;;1.75;;
7440;SDS011;29616;51.950;8.572;2023-04-24T10:06:53;1.27;;;0.52;;
7440;SDS011;29616;51.950;8.572;2023-04-24T10:09:24;2.03;;;0.47;;
7440;SDS011;29616;51.950;8.572;2023-04-24T10:11:55;1.90;;;1.80;;
7440;SDS011;29616;51.950;8.572;2023-04-24T10:14:24;2.33;;;2.10;;
7440;SDS011;29616;51.950;8.572;2023-04-24T10:16:56;1.92;;;1.73;;
7440;SDS011;29616;51.950;8.572;2023-04-24T10:19:25;1.77;;;1.67;;
7440;SDS011;29616;51.950;8.572;2023-04-24T10:21:56;1.02;;;0.75;;
7440;SDS011;29616;51.950;8.572;2023-04-24T10:24:25;1.48;;;1.30;;
7440;SDS011;29616;51.950;8.572;2023-04-24T10:26:55;1.60;;;1.38;;
7440;SDS011;29616;51.950;8.572;2023-04-24T10:29:24;0.52;;;0.10;;
7440;SDS011;29616;51.950;8.572;2023-04-24T10:31:57;1.73;;;1.63;;
7440;SDS011;29616;51.950;8.572;2023-04-24T10:34:25;2.15;;;1.95;;
7440;SDS011;29616;51.950;8.572;2023-04-24T10:36:55;2.30;;;2.08;;
7440;SDS011;29616;51.950;8.572;2023-04-24T10:39:26;0.77;;;0.43;;
7440;SDS011;29616;51.950;8.572;2023-04-24T10:41:59;2.05;;;1.50;;
7440;SDS011;29616;51.950;8.572;2023-04-24T10:44:35;3.50;;;3.05;;
7440;SDS011;29616;51.950;8.572;2023-04-24T10:47:05;1.85;;;1.63;;
7440;SDS011;29616;51.950;8.572;2023-04-24T10:49:42;2.95;;;2.75;;
7440;SDS011;29616;51.950;8.572;2023-04-24T10:52:13;1.85;;;1.73;;
7440;SDS011;29616;51.950;8.572;2023-04-24T10:54:44;2.30;;;2.10;;
7440;SDS011;29616;51.950;8.572;2023-04-24T10:57:25;1.23;;;1.13;;
7440;SDS011;29616;51.950;8.572;2023-04-24T11:00:13;2.88;;;2.67;;
7440;SDS011;29616;51.950;8.572;2023-04-24T11:02:47;1.92;;;0.75;;
7440;SDS011;29616;51.950;8.572;2023-04-24T11:05:17;2.63;;;2.42;;
7440;SDS011;29616;51.950;8.572;2023-04-24T11:10:45;3.28;;;2.97;;
7440;SDS011;29616;51.950;8.572;2023-04-24T11:13:25;2.03;;;1.92;;
7440;SDS011;29616;51.950;8.572;2023-04-24T11:16:13;1.55;;;0.65;;
7440;SDS011;29616;51.950;8.572;2023-04-24T11:18:44;2.95;;;1.27;;
7440;SDS011;29616;51.950;8.572;2023-04-24T11:21:16;4.13;;;2.65;;
7440;SDS011;29616;51.950;8.572;2023-04-24T11:26:17;3.70;;;2.60;;
7440;SDS011;29616;51.950;8.572;2023-04-24T11:28:51;1.58;;;0.80;;
7440;SDS011;29616;51.950;8.572;2023-04-24T11:31:39;2.88;;;2.20;;
7440;SDS011;29616;51.950;8.572;2023-04-24T11:34:11;2.90;;;2.65;;
7440;SDS011;29616;51.950;8.572;2023-04-24T11:36:42;4.63;;;3.65;;
7440;SDS011;29616;51.950;8.572;2023-04-24T11:39:11;1.98;;;1.02;;
7440;SDS011;29616;51.950;8.572;2023-04-24T11:41:42;4.10;;;2.97;;
7440;SDS011;29616;51.950;8.572;2023-04-24T11:44:11;4.25;;;1.50;;
7440;SDS011;29616;51.950;8.572;2023-04-24T11:46:42;6.45;;;3.78;;
7440;SDS011;29616;51.950;8.572;2023-04-24T11:49:11;9.32;;;5.95;;
7440;SDS011;29616;51.950;8.572;2023-04-24T11:51:41;7.00;;;4.38;;
7440;SDS011;29616;51.950;8.572;2023-04-24T11:54:20;3.97;;;1.50;;
7440;SDS011;29616;51.950;8.572;2023-04-24T11:56:50;3.53;;;3.22;;
7440;SDS011;29616;51.950;8.572;2023-04-24T11:59:19;5.65;;;3.92;;
7440;SDS011;29616;51.950;8.572;2023-04-24T12:01:50;4.75;;;3.22;;
7440;SDS011;29616;51.950;8.572;2023-04-24T12:04:19;5.93;;;3.08;;
7440;SDS011;29616;51.950;8.572;2023-04-24T12:06:59;5.40;;;2.78;;
7440;SDS011;29616;51.950;8.572;2023-04-24T12:09:28;5.28;;;1.30;;
7440;SDS011;29616;51.950;8.572;2023-04-24T12:12:10;4.38;;;1.88;;
7440;SDS011;29616;51.950;8.572;2023-04-24T12:14:44;4.45;;;3.50;;
7440;SDS011;29616;51.950;8.572;2023-04-24T12:17:17;2.17;;;1.60;;
7440;SDS011;29616;51.950;8.572;2023-04-24T12:19:56;4.20;;;1.40;;
7440;SDS011;29616;51.950;8.572;2023-04-24T12:22:42;3.03;;;1.27;;
7440;SDS011;29616;51.950;8.572;2023-04-24T12:25:12;3.75;;;2.78;;
7440;SDS011;29616;51.950;8.572;2023-04-24T12:27:43;2.95;;;1.80;;
7440;SDS011;29616;51.950;8.572;2023-04-24T12:30:14;3.72;;;2.65;;
7440;SDS011;29616;51.950;8.572;2023-04-24T12:32:45;11.98;;;6.05;;
7440;SDS011;29616;51.950;8.572;2023-04-24T12:35:20;5.60;;;1.85;;
7440;SDS011;29616;51.950;8.572;2023-04-24T12:37:52;5.45;;;3.45;;
7440;SDS011;29616;51.950;8.572;2023-04-24T12:40:21;4.80;;;4.15;;
7440;SDS011;29616;51.950;8.572;2023-04-24T12:42:55;4.47;;;1.98;;
7440;SDS011;29616;51.950;8.572;2023-04-24T12:45:23;3.75;;;3.28;;
7440;SDS011;29616;51.950;8.572;2023-04-24T12:47:54;4.25;;;1.92;;
7440;SDS011;29616;51.950;8.572;2023-04-24T12:50:25;7.90;;;3.42;;
7440;SDS011;29616;51.950;8.572;2023-04-24T12:52:54;6.18;;;4.30;;
7440;SDS011;29616;51.950;8.572;2023-04-24T12:55:22;3.63;;;2.92;;
7440;SDS011;29616;51.950;8.572;2023-04-24T12:57:52;7.07;;;4.45;;
7440;SDS011;29616;51.950;8.572;2023-04-24T13:00:23;8.13;;;2.97;;
7440;SDS011;29616;51.950;8.572;2023-04-24T13:02:54;8.85;;;5.38;;
7440;SDS011;29616;51.950;8.572;2023-04-24T13:05:25;6.93;;;3.15;;
7440;SDS011;29616;51.950;8.572;2023-04-24T13:07:54;7.57;;;5.25;;
7440;SDS011;29616;51.950;8.572;2023-04-24T13:10:23;4.00;;;1.67;;
7440;SDS011;29616;51.950;8.572;2023-04-24T13:12:53;8.40;;;4.57;;
7440;SDS011;29616;51.950;8.572;2023-04-24T13:15:24;8.75;;;7.40;;
7440;SDS011;29616;51.950;8.572;2023-04-24T13:17:55;5.28;;;3.13;;
7440;SDS011;29616;51.950;8.572;2023-04-24T13:20:25;7.53;;;3.53;;
7440;SDS011;29616;51.950;8.572;2023-04-24T13:22:55;9.40;;;2.40;;
7440;SDS011;29616;51.950;8.572;2023-04-24T13:25:24;5.43;;;2.10;;
7440;SDS011;29616;51.950;8.572;2023-04-24T13:27:53;7.10;;;3.63;;
7440;SDS011;29616;51.950;8.572;2023-04-24T13:30:24;11.57;;;7.28;;
7440;SDS011;29616;51.950;8.572;2023-04-24T13:32:55;6.30;;;3.30;;
7440;SDS011;29616;51.950;8.572;2023-04-24T13:35:25;12.57;;;7.03;;
7440;SDS011;29616;51.950;8.572;2023-04-24T13:37:55;10.20;;;7.43;;
7440;SDS011;29616;51.950;8.572;2023-04-24T13:40:23;7.63;;;3.20;;
7440;SDS011;29616;51.950;8.572;2023-04-24T13:42:51;16.17;;;6.45;;
7440;SDS011;29616;51.950;8.572;2023-04-24T13:45:21;10.00;;;4.80;;
7440;SDS011;29616;51.950;8.572;2023-04-24T13:47:52;11.95;;;5.95;;
7440;SDS011;29616;51.950;8.572;2023-04-24T13:50:22;9.98;;;4.43;;
7440;SDS011;29616;51.950;8.572;2023-04-24T13:52:53;10.30;;;6.93;;
7440;SDS011;29616;51.950;8.572;2023-04-24T13:55:24;6.82;;;4.00;;
7440;SDS011;29616;51.950;8.572;2023-04-24T13:57:55;11.23;;;6.15;;
7440;SDS011;29616;51.950;8.572;2023-04-24T14:00:23;8.93;;;3.00;;
7440;SDS011;29616;51.950;8.572;2023-04-24T14:02:54;12.52;;;7.38;;
7440;SDS011;29616;51.950;8.572;2023-04-24T14:05:24;10.93;;;7.15;;
7440;SDS011;29616;51.950;8.572;2023-04-24T14:07:55;7.13;;;5.35;;
7440;SDS011;29616;51.950;8.572;2023-04-24T14:10:25;12.02;;;4.50;;
7440;SDS011;29616;51.950;8.572;2023-04-24T14:12:53;12.23;;;4.70;;
7440;SDS011;29616;51.950;8.572;2023-04-24T14:15:23;12.98;;;4.72;;
7440;SDS011;29616;51.950;8.572;2023-04-24T14:17:52;8.13;;;5.50;;
7440;SDS011;29616;51.950;8.572;2023-04-24T14:22:50;20.27;;;9.85;;
7440;SDS011;29616;51.950;8.572;2023-04-24T14:25:22;11.38;;;4.25;;
7440;SDS011;29616;51.950;8.572;2023-04-24T14:27:51;17.50;;;10.90;;
7440;SDS011;29616;51.950;8.572;2023-04-24T14:30:19;13.30;;;6.88;;
7440;SDS011;29616;51.950;8.572;2023-04-24T14:32:49;6.15;;;3.80;;
7440;SDS011;29616;51.950;8.572;2023-04-24T14:35:21;12.45;;;6.50;;
7440;SDS011;29616;51.950;8.572;2023-04-24T14:37:51;11.23;;;5.53;;
7440;SDS011;29616;51.950;8.572;2023-04-24T14:40:19;8.45;;;4.50;;
7440;SDS011;29616;51.950;8.572;2023-04-24T14:45:24;4.82;;;2.55;;
7440;SDS011;29616;51.950;8.572;2023-04-24T14:47:54;6.05;;;3.50;;
7440;SDS011;29616;51.950;8.572;2023-04-24T14:50:25;14.23;;;6.38;;
7440;SDS011;29616;51.950;8.572;2023-04-24T14:52:57;10.27;;;5.10;;
7440;SDS011;29616;51.950;8.572;2023-04-24T14:55:28;10.43;;;6.45;;
7440;SDS011;29616;51.950;8.572;2023-04-24T14:57:58;10.50;;;5.70;;
7440;SDS011;29616;51.950;8.572;2023-04-24T15:00:26;11.73;;;4.55;;
7440;SDS011;29616;51.950;8.572;2023-04-24T15:02:54;7.78;;;4.05;;
7440;SDS011;29616;51.950;8.572;2023-04-24T15:05:25;6.18;;;3.45;;
7440;SDS011;29616;51.950;8.572;2023-04-24T15:10:22;5.43;;;3.45;;
7440;SDS011;29616;51.950;8.572;2023-04-24T15:12:53;11.73;;;5.53;;
7440;SDS011;29616;51.950;8.572;2023-04-24T15:15:24;6.13;;;3.88;;
7440;SDS011;29616;51.950;8.572;2023-04-24T15:17:54;9.70;;;3.83;;
7440;SDS011;29616;51.950;8.572;2023-04-24T15:20:25;4.82;;;1.80;;
7440;SDS011;29616;51.950;8.572;2023-04-24T15:22:54;4.10;;;2.30;;
7440;SDS011;29616;51.950;8.572;2023-04-24T15:25:23;5.80;;;2.40;;
7440;SDS011;29616;51.950;8.572;2023-04-24T15:27:56;4.60;;;3.92;;
7440;SDS011;29616;51.950;8.572;2023-04-24T15:30:27;5.78;;;3.72;;
7440;SDS011;29616;51.950;8.572;2023-04-24T15:32:57;7.90;;;4.43;;
7440;SDS011;29616;51.950;8.572;2023-04-24T15:35:26;8.50;;;4.45;;
7440;SDS011;29616;51.950;8.572;2023-04-24T15:37:55;5.05;;;4.10;;
7440;SDS011;29616;51.950;8.572;2023-04-24T15:40:24;5.78;;;4.05;;
7440;SDS011;29616;51.950;8.572;2023-04-24T15:42:56;7.50;;;1.27;;